sensor_id;sensor_type;location;lat;lon;timestamp;P1;durP1;ratioP1;P2;durP2;ratioP2
2710;SDS011;20721;47.402;8.550;2024-02-04T00:00:59;7.74;;;7.74;;
2710;SDS011;20721;47.402;8.550;2024-02-04T00:02:58;7.70;;;7.70;;
2710;SDS011;20721;47.402;8.550;2024-02-04T00:04:59;7.10;;;7.10;;
2710;SDS011;20721;47.402;8.550;2024-02-04T00:06:58;8.05;;;8.03;;
2710;SDS011;20721;47.402;8.550;2024-02-04T00:08:58;7.54;;;7.54;;
2710;SDS011;20721;47.402;8.550;2024-02-04T00:10:58;7.40;;;7.30;;
2710;SDS011;20721;47.402;8.550;2024-02-04T00:12:58;6.95;;;6.95;;
2710;SDS011;20721;47.402;8.550;2024-02-04T00:14:59;7.16;;;7.14;;
2710;SDS011;20721;47.402;8.550;2024-02-04T00:16:58;7.14;;;7.14;;
2710;SDS011;20721;47.402;8.550;2024-02-04T00:18:59;7.00;;;6.96;;
2710;SDS011;20721;47.402;8.550;2024-02-04T00:20:58;6.43;;;6.41;;
2710;SDS011;20721;47.402;8.550;2024-02-04T00:22:58;6.70;;;6.70;;
2710;SDS011;20721;47.402;8.550;2024-02-04T00:24:59;6.67;;;6.63;;
2710;SDS011;20721;47.402;8.550;2024-02-04T00:26:59;6.79;;;6.65;;
2710;SDS011;20721;47.402;8.550;2024-02-04T00:28:58;5.82;;;5.82;;
2710;SDS011;20721;47.402;8.550;2024-02-04T00:31:00;5.55;;;5.55;;
2710;SDS011;20721;47.402;8.550;2024-02-04T00:32:59;5.51;;;5.51;;
2710;SDS011;20721;47.402;8.550;2024-02-04T00:34:58;6.56;;;6.56;;
2710;SDS011;20721;47.402;8.550;2024-02-04T00:37:58;5.72;;;5.72;;
2710;SDS011;20721;47.402;8.550;2024-02-04T00:40:58;5.89;;;5.89;;
2710;SDS011;20721;47.402;8.550;2024-02-04T00:42:59;4.92;;;4.89;;
2710;SDS011;20721;47.402;8.550;2024-02-04T00:45:02;5.21;;;5.21;;
2710;SDS011;20721;47.402;8.550;2024-02-04T00:46:59;5.70;;;5.50;;
2710;SDS011;20721;47.402;8.550;2024-02-04T00:48:59;5.78;;;5.61;;
2710;SDS011;20721;47.402;8.550;2024-02-04T00:51:02;6.24;;;6.24;;
2710;SDS011;20721;47.402;8.550;2024-02-04T00:52:58;4.79;;;4.74;;
2710;SDS011;20721;47.402;8.550;2024-02-04T00:54:59;5.08;;;5.08;;
2710;SDS011;20721;47.402;8.550;2024-02-04T00:56:58;5.08;;;5.08;;
2710;SDS011;20721;47.402;8.550;2024-02-04T00:58:58;5.45;;;5.45;;
2710;SDS011;20721;47.402;8.550;2024-02-04T01:00:59;5.10;;;5.10;;
2710;SDS011;20721;47.402;8.550;2024-02-04T01:02:58;4.48;;;4.48;;
2710;SDS011;20721;47.402;8.550;2024-02-04T01:05:00;5.15;;;5.15;;
2710;SDS011;20721;47.402;8.550;2024-02-04T01:07:09;5.37;;;5.37;;
2710;SDS011;20721;47.402;8.550;2024-02-04T01:08:59;4.60;;;4.60;;
2710;SDS011;20721;47.402;8.550;2024-02-04T01:11:59;5.85;;;5.85;;
2710;SDS011;20721;47.402;8.550;2024-02-04T01:13:59;4.39;;;4.39;;
2710;SDS011;20721;47.402;8.550;2024-02-04T01:15:59;4.72;;;4.72;;
2710;SDS011;20721;47.402;8.550;2024-02-04T01:17:59;4.07;;;4.07;;
2710;SDS011;20721;47.402;8.550;2024-02-04T01:19:59;4.31;;;4.31;;
2710;SDS011;20721;47.402;8.550;2024-02-04T01:22:59;3.71;;;3.71;;
2710;SDS011;20721;47.402;8.550;2024-02-04T01:25:59;3.29;;;3.29;;
2710;SDS011;20721;47.402;8.550;2024-02-04T01:28:02;4.07;;;4.07;;
2710;SDS011;20721;47.402;8.550;2024-02-04T01:29:59;3.60;;;3.60;;
2710;SDS011;20721;47.402;8.550;2024-02-04T01:31:59;3.54;;;3.54;;
2710;SDS011;20721;47.402;8.550;2024-02-04T01:34:59;3.12;;;3.12;;
2710;SDS011;20721;47.402;8.550;2024-02-04T01:36:59;3.19;;;3.19;;
2710;SDS011;20721;47.402;8.550;2024-02-04T01:38:59;3.44;;;3.44;;
2710;SDS011;20721;47.402;8.550;2024-02-04T01:41:01;3.85;;;3.85;;
2710;SDS011;20721;47.402;8.550;2024-02-04T01:42:59;3.59;;;3.59;;
2710;SDS011;20721;47.402;8.550;2024-02-04T01:44:59;3.21;;;3.21;;
2710;SDS011;20721;47.402;8.550;2024-02-04T01:46:59;3.06;;;3.06;;
2710;SDS011;20721;47.402;8.550;2024-02-04T01:48:59;3.93;;;3.93;;
2710;SDS011;20721;47.402;8.550;2024-02-04T01:51:00;3.50;;;3.50;;
2710;SDS011;20721;47.402;8.550;2024-02-04T01:53:00;3.85;;;3.85;;
2710;SDS011;20721;47.402;8.550;2024-02-04T01:55:00;3.59;;;3.59;;
2710;SDS011;20721;47.402;8.550;2024-02-04T01:57:01;3.65;;;3.65;;
2710;SDS011;20721;47.402;8.550;2024-02-04T01:59:03;4.44;;;4.44;;
2710;SDS011;20721;47.402;8.550;2024-02-04T02:00:59;4.28;;;4.28;;
2710;SDS011;20721;47.402;8.550;2024-02-04T02:02:59;4.11;;;4.11;;
2710;SDS011;20721;47.402;8.550;2024-02-04T02:05:59;5.02;;;5.02;;
2710;SDS011;20721;47.402;8.550;2024-02-04T02:08:01;4.74;;;4.74;;
2710;SDS011;20721;47.402;8.550;2024-02-04T02:09:59;5.43;;;5.43;;
2710;SDS011;20721;47.402;8.550;2024-02-04T02:12:07;5.94;;;5.94;;
2710;SDS011;20721;47.402;8.550;2024-02-04T02:14:05;7.07;;;7.07;;
2710;SDS011;20721;47.402;8.550;2024-02-04T02:16:05;9.59;;;9.58;;
2710;SDS011;20721;47.402;8.550;2024-02-04T02:18:02;9.32;;;9.31;;
2710;SDS011;20721;47.402;8.550;2024-02-04T02:20:06;8.55;;;8.55;;
2710;SDS011;20721;47.402;8.550;2024-02-04T02:22:04;9.43;;;9.29;;
2710;SDS011;20721;47.402;8.550;2024-02-04T02:24:16;11.48;;;11.19;;
2710;SDS011;20721;47.402;8.550;2024-02-04T02:25:59;8.44;;;8.35;;
2710;SDS011;20721;47.402;8.550;2024-02-04T02:27:59;10.04;;;9.96;;
2710;SDS011;20721;47.402;8.550;2024-02-04T02:29:59;9.78;;;9.78;;
2710;SDS011;20721;47.402;8.550;2024-02-04T02:32:00;9.99;;;9.99;;
2710;SDS011;20721;47.402;8.550;2024-02-04T02:33:59;10.83;;;10.68;;
2710;SDS011;20721;47.402;8.550;2024-02-04T02:36:06;11.83;;;11.68;;
2710;SDS011;20721;47.402;8.550;2024-02-04T02:38:08;10.07;;;10.01;;
2710;SDS011;20721;47.402;8.550;2024-02-04T02:40:09;10.19;;;10.00;;
2710;SDS011;20721;47.402;8.550;2024-02-04T02:42:03;10.37;;;10.25;;
2710;SDS011;20721;47.402;8.550;2024-02-04T02:44:01;9.67;;;9.41;;
2710;SDS011;20721;47.402;8.550;2024-02-04T02:46:59;9.95;;;9.76;;
2710;SDS011;20721;47.402;8.550;2024-02-04T02:48:59;8.55;;;8.54;;
2710;SDS011;20721;47.402;8.550;2024-02-04T02:50:59;7.67;;;7.58;;
2710;SDS011;20721;47.402;8.550;2024-02-04T02:52:59;7.68;;;7.57;;
2710;SDS011;20721;47.402;8.550;2024-02-04T02:54:59;6.53;;;6.53;;
2710;SDS011;20721;47.402;8.550;2024-02-04T02:56:59;5.84;;;5.84;;
2710;SDS011;20721;47.402;8.550;2024-02-04T02:58:59;6.29;;;6.26;;
2710;SDS011;20721;47.402;8.550;2024-02-04T03:00:59;5.81;;;5.81;;
2710;SDS011;20721;47.402;8.550;2024-02-04T03:03:59;5.56;;;5.56;;
2710;SDS011;20721;47.402;8.550;2024-02-04T03:05:59;5.60;;;5.60;;
2710;SDS011;20721;47.402;8.550;2024-02-04T03:07:59;5.85;;;5.85;;
2710;SDS011;20721;47.402;8.550;2024-02-04T03:09:59;5.51;;;5.51;;
2710;SDS011;20721;47.402;8.550;2024-02-04T03:11:59;5.16;;;5.16;;
2710;SDS011;20721;47.402;8.550;2024-02-04T03:13:59;4.61;;;4.61;;
2710;SDS011;20721;47.402;8.550;2024-02-04T03:15:59;4.32;;;4.32;;
2710;SDS011;20721;47.402;8.550;2024-02-04T03:17:59;4.14;;;4.14;;
2710;SDS011;20721;47.402;8.550;2024-02-04T03:20:01;4.23;;;4.15;;
2710;SDS011;20721;47.402;8.550;2024-02-04T03:21:59;3.36;;;3.36;;
2710;SDS011;20721;47.402;8.550;2024-02-04T03:23:59;3.76;;;3.76;;
2710;SDS011;20721;47.402;8.550;2024-02-04T03:25:59;3.32;;;3.32;;
2710;SDS011;20721;47.402;8.550;2024-02-04T03:27:59;3.27;;;3.27;;
2710;SDS011;20721;47.402;8.550;2024-02-04T03:29:59;3.57;;;3.57;;
2710;SDS011;20721;47.402;8.550;2024-02-04T03:31:59;3.16;;;3.16;;
2710;SDS011;20721;47.402;8.550;2024-02-04T03:34:00;3.14;;;3.14;;
2710;SDS011;20721;47.402;8.550;2024-02-04T03:35:59;3.18;;;3.18;;
2710;SDS011;20721;47.402;8.550;2024-02-04T03:37:59;3.28;;;3.28;;
2710;SDS011;20721;47.402;8.550;2024-02-04T03:39:59;2.82;;;2.82;;
2710;SDS011;20721;47.402;8.550;2024-02-04T03:42:59;3.10;;;3.10;;
2710;SDS011;20721;47.402;8.550;2024-02-04T03:44:59;3.29;;;3.29;;
2710;SDS011;20721;47.402;8.550;2024-02-04T03:47:00;2.94;;;2.94;;
2710;SDS011;20721;47.402;8.550;2024-02-04T03:50:59;3.36;;;3.36;;
2710;SDS011;20721;47.402;8.550;2024-02-04T03:52:59;3.74;;;3.74;;
2710;SDS011;20721;47.402;8.550;2024-02-04T03:54:59;3.61;;;3.61;;
2710;SDS011;20721;47.402;8.550;2024-02-04T03:57:59;3.49;;;3.49;;
2710;SDS011;20721;47.402;8.550;2024-02-04T03:59:59;3.27;;;3.27;;
2710;SDS011;20721;47.402;8.550;2024-02-04T04:02:00;3.10;;;3.10;;
2710;SDS011;20721;47.402;8.550;2024-02-04T04:03:59;3.79;;;3.79;;
2710;SDS011;20721;47.402;8.550;2024-02-04T04:05:59;5.26;;;5.18;;
2710;SDS011;20721;47.402;8.550;2024-02-04T04:07:59;5.97;;;5.97;;
2710;SDS011;20721;47.402;8.550;2024-02-04T04:09:59;7.47;;;7.46;;
2710;SDS011;20721;47.402;8.550;2024-02-04T04:11:59;7.62;;;7.56;;
2710;SDS011;20721;47.402;8.550;2024-02-04T04:13:59;8.60;;;8.43;;
2710;SDS011;20721;47.402;8.550;2024-02-04T04:16:01;9.33;;;9.22;;
2710;SDS011;20721;47.402;8.550;2024-02-04T04:17:59;9.73;;;9.59;;
2710;SDS011;20721;47.402;8.550;2024-02-04T04:19:59;8.43;;;8.33;;
2710;SDS011;20721;47.402;8.550;2024-02-04T04:21:59;8.91;;;8.69;;
2710;SDS011;20721;47.402;8.550;2024-02-04T04:24:00;9.06;;;8.91;;
2710;SDS011;20721;47.402;8.550;2024-02-04T04:25:59;9.84;;;9.53;;
2710;SDS011;20721;47.402;8.550;2024-02-04T04:28:59;10.04;;;9.84;;
2710;SDS011;20721;47.402;8.550;2024-02-04T04:30:59;10.51;;;10.39;;
2710;SDS011;20721;47.402;8.550;2024-02-04T04:33:59;11.27;;;11.04;;
2710;SDS011;20721;47.402;8.550;2024-02-04T04:35:59;11.28;;;11.03;;
2710;SDS011;20721;47.402;8.550;2024-02-04T04:37:59;11.31;;;11.22;;
2710;SDS011;20721;47.402;8.550;2024-02-04T04:39:59;11.64;;;11.42;;
2710;SDS011;20721;47.402;8.550;2024-02-04T04:41:59;10.55;;;10.40;;
2710;SDS011;20721;47.402;8.550;2024-02-04T04:43:59;10.90;;;10.89;;
2710;SDS011;20721;47.402;8.550;2024-02-04T04:46:00;11.94;;;11.75;;
2710;SDS011;20721;47.402;8.550;2024-02-04T04:47:59;12.54;;;12.24;;
2710;SDS011;20721;47.402;8.550;2024-02-04T04:49:59;10.94;;;10.63;;
2710;SDS011;20721;47.402;8.550;2024-02-04T04:51:59;11.17;;;10.97;;
2710;SDS011;20721;47.402;8.550;2024-02-04T04:53:59;10.60;;;10.37;;
2710;SDS011;20721;47.402;8.550;2024-02-04T04:55:59;11.23;;;11.00;;
2710;SDS011;20721;47.402;8.550;2024-02-04T04:58:00;11.55;;;11.36;;
2710;SDS011;20721;47.402;8.550;2024-02-04T04:59:59;12.73;;;12.40;;
2710;SDS011;20721;47.402;8.550;2024-02-04T05:02:00;11.55;;;11.45;;
2710;SDS011;20721;47.402;8.550;2024-02-04T05:03:59;11.18;;;11.02;;
2710;SDS011;20721;47.402;8.550;2024-02-04T05:05:59;10.53;;;10.47;;
2710;SDS011;20721;47.402;8.550;2024-02-04T05:07:59;11.09;;;10.92;;
2710;SDS011;20721;47.402;8.550;2024-02-04T05:09:59;12.37;;;12.28;;
2710;SDS011;20721;47.402;8.550;2024-02-04T05:11:59;12.36;;;12.25;;
2710;SDS011;20721;47.402;8.550;2024-02-04T05:13:59;11.60;;;11.37;;
2710;SDS011;20721;47.402;8.550;2024-02-04T05:15:59;12.63;;;12.24;;
2710;SDS011;20721;47.402;8.550;2024-02-04T05:17:59;12.45;;;12.11;;
2710;SDS011;20721;47.402;8.550;2024-02-04T05:19:59;12.49;;;12.21;;
2710;SDS011;20721;47.402;8.550;2024-02-04T05:21:59;12.07;;;11.80;;
2710;SDS011;20721;47.402;8.550;2024-02-04T05:23:59;13.39;;;13.04;;
2710;SDS011;20721;47.402;8.550;2024-02-04T05:26:02;11.96;;;11.75;;
2710;SDS011;20721;47.402;8.550;2024-02-04T05:27:59;12.84;;;12.66;;
2710;SDS011;20721;47.402;8.550;2024-02-04T05:29:59;11.75;;;11.53;;
2710;SDS011;20721;47.402;8.550;2024-02-04T05:31:59;11.41;;;11.20;;
2710;SDS011;20721;47.402;8.550;2024-02-04T05:34:04;11.99;;;11.77;;
2710;SDS011;20721;47.402;8.550;2024-02-04T05:35:59;12.07;;;11.92;;
2710;SDS011;20721;47.402;8.550;2024-02-04T05:38:00;14.64;;;14.43;;
2710;SDS011;20721;47.402;8.550;2024-02-04T05:39:59;13.86;;;13.60;;
2710;SDS011;20721;47.402;8.550;2024-02-04T05:41:59;11.13;;;10.98;;
2710;SDS011;20721;47.402;8.550;2024-02-04T05:44:00;12.30;;;12.12;;
2710;SDS011;20721;47.402;8.550;2024-02-04T05:46:00;11.68;;;11.49;;
2710;SDS011;20721;47.402;8.550;2024-02-04T05:47:59;10.20;;;10.00;;
2710;SDS011;20721;47.402;8.550;2024-02-04T05:51:59;11.18;;;11.12;;
2710;SDS011;20721;47.402;8.550;2024-02-04T05:53:59;11.55;;;11.33;;
2710;SDS011;20721;47.402;8.550;2024-02-04T05:55:59;10.31;;;9.99;;
2710;SDS011;20721;47.402;8.550;2024-02-04T05:57:59;11.28;;;10.97;;
2710;SDS011;20721;47.402;8.550;2024-02-04T06:00:00;10.07;;;9.76;;
2710;SDS011;20721;47.402;8.550;2024-02-04T06:01:59;9.69;;;9.60;;
2710;SDS011;20721;47.402;8.550;2024-02-04T06:03:59;9.80;;;9.58;;
2710;SDS011;20721;47.402;8.550;2024-02-04T06:05:59;9.18;;;8.88;;
2710;SDS011;20721;47.402;8.550;2024-02-04T06:07:59;7.71;;;7.47;;
2710;SDS011;20721;47.402;8.550;2024-02-04T06:09:59;7.71;;;7.71;;
2710;SDS011;20721;47.402;8.550;2024-02-04T06:11:59;7.45;;;7.27;;
2710;SDS011;20721;47.402;8.550;2024-02-04T06:13:59;7.17;;;7.07;;
2710;SDS011;20721;47.402;8.550;2024-02-04T06:15:59;7.09;;;7.09;;
2710;SDS011;20721;47.402;8.550;2024-02-04T06:17:59;6.13;;;6.13;;
2710;SDS011;20721;47.402;8.550;2024-02-04T06:19:59;5.76;;;5.76;;
2710;SDS011;20721;47.402;8.550;2024-02-04T06:21:59;5.78;;;5.69;;
2710;SDS011;20721;47.402;8.550;2024-02-04T06:23:59;5.81;;;5.76;;
2710;SDS011;20721;47.402;8.550;2024-02-04T06:25:59;5.96;;;5.96;;
2710;SDS011;20721;47.402;8.550;2024-02-04T06:27:59;5.94;;;5.92;;
2710;SDS011;20721;47.402;8.550;2024-02-04T06:29:59;5.86;;;5.86;;
2710;SDS011;20721;47.402;8.550;2024-02-04T06:31:59;5.68;;;5.68;;
2710;SDS011;20721;47.402;8.550;2024-02-04T06:35:01;6.07;;;5.93;;
2710;SDS011;20721;47.402;8.550;2024-02-04T06:37:00;8.13;;;7.98;;
2710;SDS011;20721;47.402;8.550;2024-02-04T06:38:59;6.43;;;6.26;;
2710;SDS011;20721;47.402;8.550;2024-02-04T06:40:59;6.68;;;6.58;;
2710;SDS011;20721;47.402;8.550;2024-02-04T06:42:59;5.83;;;5.75;;
2710;SDS011;20721;47.402;8.550;2024-02-04T06:44:59;6.01;;;5.94;;
2710;SDS011;20721;47.402;8.550;2024-02-04T06:46:59;6.39;;;6.34;;
2710;SDS011;20721;47.402;8.550;2024-02-04T06:48:59;6.14;;;6.13;;
2710;SDS011;20721;47.402;8.550;2024-02-04T06:50:59;6.55;;;6.48;;
2710;SDS011;20721;47.402;8.550;2024-02-04T06:53:00;6.30;;;6.30;;
2710;SDS011;20721;47.402;8.550;2024-02-04T06:55:00;5.67;;;5.67;;
2710;SDS011;20721;47.402;8.550;2024-02-04T06:57:00;6.09;;;6.09;;
2710;SDS011;20721;47.402;8.550;2024-02-04T06:58:59;6.28;;;6.26;;
2710;SDS011;20721;47.402;8.550;2024-02-04T07:01:00;6.04;;;6.02;;
2710;SDS011;20721;47.402;8.550;2024-02-04T07:03:00;6.57;;;6.57;;
2710;SDS011;20721;47.402;8.550;2024-02-04T07:06:00;6.76;;;6.69;;
2710;SDS011;20721;47.402;8.550;2024-02-04T07:07:59;6.65;;;6.54;;
2710;SDS011;20721;47.402;8.550;2024-02-04T07:10:00;6.73;;;6.68;;
2710;SDS011;20721;47.402;8.550;2024-02-04T07:11:59;7.12;;;6.98;;
2710;SDS011;20721;47.402;8.550;2024-02-04T07:13:59;9.09;;;8.92;;
2710;SDS011;20721;47.402;8.550;2024-02-04T07:16:00;8.91;;;8.73;;
2710;SDS011;20721;47.402;8.550;2024-02-04T07:17:59;10.41;;;10.26;;
2710;SDS011;20721;47.402;8.550;2024-02-04T07:20:00;11.49;;;11.33;;
2710;SDS011;20721;47.402;8.550;2024-02-04T07:21:59;11.66;;;11.48;;
2710;SDS011;20721;47.402;8.550;2024-02-04T07:23:59;12.40;;;12.20;;
2710;SDS011;20721;47.402;8.550;2024-02-04T07:26:59;12.21;;;11.87;;
2710;SDS011;20721;47.402;8.550;2024-02-04T07:29:02;12.71;;;12.42;;
2710;SDS011;20721;47.402;8.550;2024-02-04T07:31:00;12.81;;;12.60;;
2710;SDS011;20721;47.402;8.550;2024-02-04T07:33:00;13.28;;;13.14;;
2710;SDS011;20721;47.402;8.550;2024-02-04T07:35:01;12.78;;;12.48;;
2710;SDS011;20721;47.402;8.550;2024-02-04T07:37:02;11.40;;;11.12;;
2710;SDS011;20721;47.402;8.550;2024-02-04T07:38:59;12.73;;;12.52;;
2710;SDS011;20721;47.402;8.550;2024-02-04T07:40:59;14.26;;;14.02;;
2710;SDS011;20721;47.402;8.550;2024-02-04T07:43:00;14.35;;;14.07;;
2710;SDS011;20721;47.402;8.550;2024-02-04T07:44:59;13.05;;;12.94;;
2710;SDS011;20721;47.402;8.550;2024-02-04T07:46:59;12.39;;;12.12;;
2710;SDS011;20721;47.402;8.550;2024-02-04T07:49:00;13.43;;;12.93;;
2710;SDS011;20721;47.402;8.550;2024-02-04T07:50:59;12.30;;;12.02;;
2710;SDS011;20721;47.402;8.550;2024-02-04T07:52:59;12.05;;;11.81;;
2710;SDS011;20721;47.402;8.550;2024-02-04T07:55:00;11.73;;;11.67;;
2710;SDS011;20721;47.402;8.550;2024-02-04T07:56:59;13.25;;;13.07;;
2710;SDS011;20721;47.402;8.550;2024-02-04T07:58:59;14.77;;;14.33;;
2710;SDS011;20721;47.402;8.550;2024-02-04T08:02:00;15.60;;;15.00;;
2710;SDS011;20721;47.402;8.550;2024-02-04T08:04:00;14.15;;;13.94;;
2710;SDS011;20721;47.402;8.550;2024-02-04T08:06:02;15.13;;;14.82;;
2710;SDS011;20721;47.402;8.550;2024-02-04T08:08:00;13.68;;;13.22;;
2710;SDS011;20721;47.402;8.550;2024-02-04T08:10:01;13.12;;;12.78;;
2710;SDS011;20721;47.402;8.550;2024-02-04T08:12:02;12.09;;;11.75;;
2710;SDS011;20721;47.402;8.550;2024-02-04T08:13:59;11.40;;;11.10;;
2710;SDS011;20721;47.402;8.550;2024-02-04T08:16:00;12.59;;;12.41;;
2710;SDS011;20721;47.402;8.550;2024-02-04T08:18:00;12.49;;;12.21;;
2710;SDS011;20721;47.402;8.550;2024-02-04T08:20:00;13.30;;;12.99;;
2710;SDS011;20721;47.402;8.550;2024-02-04T08:22:00;12.30;;;12.04;;
2710;SDS011;20721;47.402;8.550;2024-02-04T08:24:00;14.51;;;13.97;;
2710;SDS011;20721;47.402;8.550;2024-02-04T08:26:00;13.73;;;13.43;;
2710;SDS011;20721;47.402;8.550;2024-02-04T08:28:00;12.35;;;12.04;;
2710;SDS011;20721;47.402;8.550;2024-02-04T08:30:00;11.76;;;11.58;;
2710;SDS011;20721;47.402;8.550;2024-02-04T08:33:00;11.81;;;11.66;;
2710;SDS011;20721;47.402;8.550;2024-02-04T08:35:00;11.31;;;11.16;;
2710;SDS011;20721;47.402;8.550;2024-02-04T08:37:00;11.63;;;11.63;;
2710;SDS011;20721;47.402;8.550;2024-02-04T08:39:00;14.06;;;13.68;;
2710;SDS011;20721;47.402;8.550;2024-02-04T08:41:00;13.64;;;13.46;;
2710;SDS011;20721;47.402;8.550;2024-02-04T08:43:02;11.95;;;11.71;;
2710;SDS011;20721;47.402;8.550;2024-02-04T08:45:00;10.28;;;10.12;;
2710;SDS011;20721;47.402;8.550;2024-02-04T08:47:00;10.86;;;10.66;;
2710;SDS011;20721;47.402;8.550;2024-02-04T08:49:02;9.07;;;8.83;;
2710;SDS011;20721;47.402;8.550;2024-02-04T08:51:10;9.51;;;9.38;;
2710;SDS011;20721;47.402;8.550;2024-02-04T08:53:00;8.04;;;7.97;;
2710;SDS011;20721;47.402;8.550;2024-02-04T08:55:00;6.59;;;6.50;;
2710;SDS011;20721;47.402;8.550;2024-02-04T08:57:00;5.79;;;5.70;;
2710;SDS011;20721;47.402;8.550;2024-02-04T08:59:00;6.33;;;6.25;;
2710;SDS011;20721;47.402;8.550;2024-02-04T09:01:00;5.64;;;5.54;;
2710;SDS011;20721;47.402;8.550;2024-02-04T09:03:00;5.49;;;5.42;;
2710;SDS011;20721;47.402;8.550;2024-02-04T09:05:00;5.47;;;5.38;;
2710;SDS011;20721;47.402;8.550;2024-02-04T09:07:00;5.62;;;5.50;;
2710;SDS011;20721;47.402;8.550;2024-02-04T09:09:00;5.56;;;5.51;;
2710;SDS011;20721;47.402;8.550;2024-02-04T09:11:00;5.47;;;5.47;;
2710;SDS011;20721;47.402;8.550;2024-02-04T09:13:00;4.88;;;4.88;;
2710;SDS011;20721;47.402;8.550;2024-02-04T09:15:00;4.92;;;4.82;;
2710;SDS011;20721;47.402;8.550;2024-02-04T09:17:02;7.02;;;7.02;;
2710;SDS011;20721;47.402;8.550;2024-02-04T09:19:00;5.51;;;5.40;;
2710;SDS011;20721;47.402;8.550;2024-02-04T09:21:00;5.01;;;4.90;;
2710;SDS011;20721;47.402;8.550;2024-02-04T09:23:00;4.83;;;4.73;;
2710;SDS011;20721;47.402;8.550;2024-02-04T09:25:00;4.96;;;4.96;;
2710;SDS011;20721;47.402;8.550;2024-02-04T09:27:00;4.51;;;4.51;;
2710;SDS011;20721;47.402;8.550;2024-02-04T09:29:00;4.73;;;4.73;;
2710;SDS011;20721;47.402;8.550;2024-02-04T09:31:00;4.47;;;4.47;;
2710;SDS011;20721;47.402;8.550;2024-02-04T09:33:00;4.42;;;4.33;;
2710;SDS011;20721;47.402;8.550;2024-02-04T09:35:00;4.92;;;4.77;;
2710;SDS011;20721;47.402;8.550;2024-02-04T09:37:03;4.56;;;4.45;;
2710;SDS011;20721;47.402;8.550;2024-02-04T09:39:00;4.43;;;4.38;;
2710;SDS011;20721;47.402;8.550;2024-02-04T09:41:00;4.29;;;4.24;;
2710;SDS011;20721;47.402;8.550;2024-02-04T09:43:02;4.44;;;4.43;;
2710;SDS011;20721;47.402;8.550;2024-02-04T09:45:00;3.92;;;3.92;;
2710;SDS011;20721;47.402;8.550;2024-02-04T09:47:00;4.27;;;4.27;;
2710;SDS011;20721;47.402;8.550;2024-02-04T09:49:01;4.44;;;4.39;;
2710;SDS011;20721;47.402;8.550;2024-02-04T09:51:06;4.44;;;4.37;;
2710;SDS011;20721;47.402;8.550;2024-02-04T09:53:03;4.01;;;3.92;;
2710;SDS011;20721;47.402;8.550;2024-02-04T09:55:05;4.90;;;4.80;;
2710;SDS011;20721;47.402;8.550;2024-02-04T09:57:05;4.48;;;4.36;;
2710;SDS011;20721;47.402;8.550;2024-02-04T09:59:03;4.59;;;4.59;;
2710;SDS011;20721;47.402;8.550;2024-02-04T10:01:00;4.34;;;4.34;;
2710;SDS011;20721;47.402;8.550;2024-02-04T10:03:01;4.48;;;4.48;;
2710;SDS011;20721;47.402;8.550;2024-02-04T10:05:01;4.44;;;4.44;;
2710;SDS011;20721;47.402;8.550;2024-02-04T10:07:00;5.73;;;5.67;;
2710;SDS011;20721;47.402;8.550;2024-02-04T10:09:00;5.24;;;5.16;;
2710;SDS011;20721;47.402;8.550;2024-02-04T10:11:01;4.19;;;4.19;;
2710;SDS011;20721;47.402;8.550;2024-02-04T10:13:04;3.33;;;3.33;;
2710;SDS011;20721;47.402;8.550;2024-02-04T10:15:00;3.68;;;3.67;;
2710;SDS011;20721;47.402;8.550;2024-02-04T10:17:00;5.02;;;5.02;;
2710;SDS011;20721;47.402;8.550;2024-02-04T10:19:00;4.00;;;3.97;;
2710;SDS011;20721;47.402;8.550;2024-02-04T10:21:00;3.69;;;3.69;;
2710;SDS011;20721;47.402;8.550;2024-02-04T10:23:00;7.29;;;7.20;;
2710;SDS011;20721;47.402;8.550;2024-02-04T10:25:06;6.04;;;5.96;;
2710;SDS011;20721;47.402;8.550;2024-02-04T10:27:00;4.01;;;3.96;;
2710;SDS011;20721;47.402;8.550;2024-02-04T10:29:00;4.28;;;4.23;;
2710;SDS011;20721;47.402;8.550;2024-02-04T10:33:01;4.56;;;4.46;;
2710;SDS011;20721;47.402;8.550;2024-02-04T10:36:00;4.30;;;4.26;;
2710;SDS011;20721;47.402;8.550;2024-02-04T10:38:02;4.23;;;4.18;;
2710;SDS011;20721;47.402;8.550;2024-02-04T10:40:00;4.68;;;4.68;;
2710;SDS011;20721;47.402;8.550;2024-02-04T10:42:02;4.41;;;4.41;;
2710;SDS011;20721;47.402;8.550;2024-02-04T10:44:02;4.42;;;4.39;;
2710;SDS011;20721;47.402;8.550;2024-02-04T10:46:09;3.90;;;3.90;;
2710;SDS011;20721;47.402;8.550;2024-02-04T10:48:05;3.64;;;3.64;;
2710;SDS011;20721;47.402;8.550;2024-02-04T10:50:02;4.07;;;4.07;;
2710;SDS011;20721;47.402;8.550;2024-02-04T10:52:00;4.67;;;4.67;;
2710;SDS011;20721;47.402;8.550;2024-02-04T10:54:01;4.38;;;4.38;;
2710;SDS011;20721;47.402;8.550;2024-02-04T10:56:03;5.53;;;5.53;;
2710;SDS011;20721;47.402;8.550;2024-02-04T10:58:00;5.43;;;5.43;;
2710;SDS011;20721;47.402;8.550;2024-02-04T11:00:02;5.43;;;5.43;;
2710;SDS011;20721;47.402;8.550;2024-02-04T11:02:00;5.89;;;5.89;;
2710;SDS011;20721;47.402;8.550;2024-02-04T11:04:01;5.41;;;5.41;;
2710;SDS011;20721;47.402;8.550;2024-02-04T11:06:00;6.00;;;5.95;;
2710;SDS011;20721;47.402;8.550;2024-02-04T11:08:02;6.56;;;6.49;;
2710;SDS011;20721;47.402;8.550;2024-02-04T11:10:01;6.25;;;6.20;;
2710;SDS011;20721;47.402;8.550;2024-02-04T11:12:01;6.49;;;6.40;;
2710;SDS011;20721;47.402;8.550;2024-02-04T11:14:03;5.86;;;5.82;;
2710;SDS011;20721;47.402;8.550;2024-02-04T11:16:04;5.67;;;5.59;;
2710;SDS011;20721;47.402;8.550;2024-02-04T11:21:03;6.64;;;6.63;;
2710;SDS011;20721;47.402;8.550;2024-02-04T11:23:06;5.36;;;5.36;;
2710;SDS011;20721;47.402;8.550;2024-02-04T11:27:00;5.60;;;5.57;;
2710;SDS011;20721;47.402;8.550;2024-02-04T11:29:00;5.45;;;5.45;;
2710;SDS011;20721;47.402;8.550;2024-02-04T11:31:01;4.73;;;4.73;;
2710;SDS011;20721;47.402;8.550;2024-02-04T11:33:03;5.36;;;5.36;;
2710;SDS011;20721;47.402;8.550;2024-02-04T11:35:07;5.43;;;5.43;;
2710;SDS011;20721;47.402;8.550;2024-02-04T11:37:00;5.87;;;5.87;;
2710;SDS011;20721;47.402;8.550;2024-02-04T11:39:00;5.22;;;5.22;;
2710;SDS011;20721;47.402;8.550;2024-02-04T11:41:02;5.09;;;5.09;;
2710;SDS011;20721;47.402;8.550;2024-02-04T11:43:13;5.16;;;5.12;;
2710;SDS011;20721;47.402;8.550;2024-02-04T11:45:06;5.67;;;5.61;;
2710;SDS011;20721;47.402;8.550;2024-02-04T11:47:01;5.97;;;5.96;;
2710;SDS011;20721;47.402;8.550;2024-02-04T11:49:01;5.71;;;5.66;;
2710;SDS011;20721;47.402;8.550;2024-02-04T11:51:03;6.89;;;6.75;;
2710;SDS011;20721;47.402;8.550;2024-02-04T11:55:01;5.83;;;5.81;;
2710;SDS011;20721;47.402;8.550;2024-02-04T11:57:04;5.46;;;5.43;;
2710;SDS011;20721;47.402;8.550;2024-02-04T11:59:01;6.54;;;6.47;;
2710;SDS011;20721;47.402;8.550;2024-02-04T12:01:03;5.96;;;5.91;;
2710;SDS011;20721;47.402;8.550;2024-02-04T12:03:09;5.93;;;5.84;;
2710;SDS011;20721;47.402;8.550;2024-02-04T12:05:00;6.36;;;6.29;;
2710;SDS011;20721;47.402;8.550;2024-02-04T12:07:01;6.92;;;6.90;;
2710;SDS011;20721;47.402;8.550;2024-02-04T12:09:03;7.00;;;6.94;;
2710;SDS011;20721;47.402;8.550;2024-02-04T12:11:01;7.03;;;6.97;;
2710;SDS011;20721;47.402;8.550;2024-02-04T12:13:02;7.44;;;7.36;;
2710;SDS011;20721;47.402;8.550;2024-02-04T12:15:02;7.84;;;7.80;;
2710;SDS011;20721;47.402;8.550;2024-02-04T12:17:05;7.69;;;7.62;;
2710;SDS011;20721;47.402;8.550;2024-02-04T12:19:02;7.67;;;7.62;;
2710;SDS011;20721;47.402;8.550;2024-02-04T12:21:01;7.71;;;7.67;;
2710;SDS011;20721;47.402;8.550;2024-02-04T12:23:02;10.09;;;9.95;;
2710;SDS011;20721;47.402;8.550;2024-02-04T12:25:01;7.52;;;7.51;;
2710;SDS011;20721;47.402;8.550;2024-02-04T12:27:00;8.83;;;8.76;;
2710;SDS011;20721;47.402;8.550;2024-02-04T12:29:00;7.92;;;7.86;;
2710;SDS011;20721;47.402;8.550;2024-02-04T12:31:03;8.24;;;8.21;;
2710;SDS011;20721;47.402;8.550;2024-02-04T12:33:07;7.52;;;7.51;;
2710;SDS011;20721;47.402;8.550;2024-02-04T12:35:05;7.91;;;7.88;;
2710;SDS011;20721;47.402;8.550;2024-02-04T12:37:07;8.81;;;8.71;;
2710;SDS011;20721;47.402;8.550;2024-02-04T12:39:02;7.99;;;7.90;;
2710;SDS011;20721;47.402;8.550;2024-02-04T12:41:01;8.14;;;8.03;;